Time;durP1;ratioP1;P1;durP2;ratioP2;P2;SDS_P1;SDS_P2;PMS_P1;PMS_P2;Temp;Humidity;BMP_temperature;BMP_pressure;BME280_temperature;BME280_humidity;BME280_pressure;Samples;Min_cycle;Max_cycle;Signal;HPM_P1;HPM_P2
2022/09/30 00:02:16;;;;;;;0.80;0.20;;;19.20;45.40;21.40;92888.00;;;;10473161;28;45236;-61
2022/09/30 00:07:38;;;;;;;0.20;0.20;;;19.20;45.50;21.40;92896.00;;;;10472786;28;45316;-62
2022/09/30 00:12:59;;;;;;;0.40;0.30;;;19.20;45.40;21.40;92899.00;;;;10473290;28;46128;-61
2022/09/30 00:18:19;;;;;;;0.17;0.13;;;19.20;45.50;21.40;92901.00;;;;10451333;28;45287;-61
2022/09/30 00:23:42;;;;;;;0.10;0.10;;;19.20;45.40;21.40;92924.00;;;;10431369;28;45823;-61
2022/09/30 00:29:04;;;;;;;0.22;0.15;;;19.10;45.40;21.40;92912.00;;;;10443466;28;45209;-62
2022/09/30 00:34:25;;;;;;;0.60;0.35;;;19.10;45.30;21.40;92925.00;;;;10460556;28;45272;-62
2022/09/30 00:39:47;;;;;;;0.10;0.10;;;19.10;45.40;21.40;92914.00;;;;10472459;28;45161;-62
2022/09/30 00:45:10;;;;;;;0.40;0.22;;;19.10;45.30;21.40;92922.00;;;;10471108;28;45858;-61
2022/09/30 00:50:37;;;;;;;1.17;0.10;;;19.10;45.40;21.40;92938.00;;;;10471263;28;45839;-61
2022/09/30 00:56:04;;;;;;;0.20;0.13;;;19.10;45.30;21.40;92927.00;;;;10471683;28;45873;-61
2022/09/30 01:01:25;;;;;;;0.20;0.13;;;19.10;45.40;21.30;92938.00;;;;10451960;28;45198;-62
2022/09/30 01:06:46;;;;;;;0.10;0.10;;;19.10;45.40;21.40;92922.00;;;;10440619;28;45238;-61
2022/09/30 01:12:13;;;;;;;1.00;0.10;;;19.10;45.40;21.40;92928.00;;;;10429424;28;45310;-61
2022/09/30 01:17:45;;;;;;;0.10;0.10;;;19.10;45.30;21.30;92931.00;;;;10427895;28;45160;-62
2022/09/30 01:23:46;;;;;;;0.10;0.08;;;19.10;45.40;21.30;92942.00;;;;10461757;28;45154;-62
2022/09/30 01:30:00;;;;;;;0.55;0.20;;;19.10;45.40;21.30;92937.00;;;;10454983;28;45179;-61
2022/09/30 01:35:36;;;;;;;0.43;0.10;;;19.10;45.40;21.30;92946.00;;;;10451054;28;45214;-61
2022/09/30 01:41:04;;;;;;;0.30;0.13;;;19.00;45.30;21.30;92935.00;;;;10450183;28;45527;-62
2022/09/30 01:46:34;;;;;;;0.17;0.10;;;19.00;45.30;21.30;92932.00;;;;10468349;28;45172;-61
2022/09/30 01:52:04;;;;;;;0.60;0.10;;;19.10;45.50;21.30;92939.00;;;;10469702;28;45111;-61
2022/09/30 01:57:32;;;;;;;0.10;0.10;;;19.00;45.30;21.30;92937.00;;;;10470324;28;45861;-62
2022/09/30 02:02:57;;;;;;;0.10;0.10;;;19.00;45.30;21.30;92941.00;;;;10469726;28;45317;-62
2022/09/30 02:08:25;;;;;;;0.20;0.13;;;19.00;45.30;21.30;92946.00;;;;10469129;28;45233;-61
2022/09/30 02:13:49;;;;;;;0.20;0.10;;;19.00;45.30;21.30;92947.00;;;;10459660;28;45193;-61
2022/09/30 02:19:19;;;;;;;0.65;0.10;;;19.00;45.40;21.30;92939.00;;;;10426754;28;45203;-61
2022/09/30 02:24:44;;;;;;;0.30;0.20;;;19.00;45.30;21.30;92951.00;;;;10433856;28;45418;-61
2022/09/30 02:30:08;;;;;;;0.10;0.10;;;19.00;45.40;21.30;92948.00;;;;10469167;28;45153;-61
2022/09/30 02:35:34;;;;;;;0.35;0.10;;;19.00;45.40;21.20;92966.00;;;;10468926;28;45296;-62
2022/09/30 02:41:02;;;;;;;0.35;0.10;;;19.00;45.40;21.30;92962.00;;;;10470249;28;45190;-61
2022/09/30 02:46:35;;;;;;;0.30;0.13;;;19.00;45.40;21.20;92959.00;;;;10474356;28;45679;-61
2022/09/30 02:52:08;;;;;;;0.20;0.15;;;19.00;45.30;21.20;92959.00;;;;10475555;28;45246;-61
2022/09/30 02:57:39;;;;;;;0.10;0.10;;;19.00;45.50;21.20;92971.00;;;;10475593;28;45379;-62
2022/09/30 03:03:05;;;;;;;0.10;0.10;;;19.00;46.00;21.20;92981.00;;;;10474519;28;45168;-61
2022/09/30 03:08:26;;;;;;;0.20;0.20;;;19.00;45.30;21.20;92976.00;;;;10474543;28;45189;-62
2022/09/30 03:14:19;;;;;;;0.10;0.10;;;19.00;45.30;21.20;92974.00;;;;10475069;28;45835;-62
2022/09/30 03:19:59;;;;;;;0.25;0.10;;;19.00;45.40;21.20;92978.00;;;;10465365;28;45774;-61
2022/09/30 03:25:33;;;;;;;0.20;0.20;;;19.00;45.40;21.20;92978.00;;;;10473824;28;45754;-62
2022/09/30 03:31:05;;;;;;;0.10;0.10;;;19.00;45.30;21.20;92971.00;;;;10474445;28;45536;-62
2022/09/30 03:36:35;;;;;;;0.20;0.10;;;18.90;45.30;21.20;92994.00;;;;10474110;28;45782;-62
2022/09/30 03:42:05;;;;;;;0.15;0.10;;;19.00;45.40;21.20;92992.00;;;;10473322;28;45824;-61
2022/09/30 03:47:28;;;;;;;0.17;0.10;;;18.90;45.30;21.20;92984.00;;;;10472641;28;45324;-62
2022/09/30 03:52:50;;;;;;;0.60;0.20;;;18.90;45.30;21.20;92991.00;;;;10473618;28;45710;-61
2022/09/30 03:58:11;;;;;;;0.17;0.10;;;18.90;45.30;21.20;93000.00;;;;10473259;28;45235;-62
2022/09/30 04:03:34;;;;;;;0.93;0.20;;;18.90;45.30;21.20;92992.00;;;;10440711;28;45185;-62
2022/09/30 04:08:55;;;;;;;0.40;0.10;;;18.90;45.30;21.20;93008.00;;;;10431182;28;45340;-62
2022/09/30 04:14:15;;;;;;;0.10;0.10;;;19.00;45.40;21.20;93005.00;;;;10431027;28;45232;-62
2022/09/30 04:19:39;;;;;;;0.10;0.10;;;19.10;45.30;21.30;92999.00;;;;10457785;28;45312;-61
2022/09/30 04:24:59;;;;;;;0.70;0.30;;;19.10;45.20;21.30;93022.00;;;;10440049;28;45205;-61
2022/09/30 04:30:20;;;;;;;0.10;0.10;;;19.20;45.10;21.30;93012.00;;;;10472386;28;45210;-61
2022/09/30 04:35:42;;;;;;;0.10;0.10;;;19.20;45.10;21.40;93012.00;;;;10472269;28;45799;-61
2022/09/30 04:41:04;;;;;;;0.10;0.10;;;19.20;45.00;21.40;93005.00;;;;10467364;28;45316;-61
2022/09/30 04:46:25;;;;;;;0.20;0.10;;;19.30;45.00;21.50;93022.00;;;;10445062;28;45231;-61
2022/09/30 04:51:47;;;;;;;0.15;0.10;;;19.30;44.90;21.50;93028.00;;;;10459602;28;45238;-61
2022/09/30 04:57:08;;;;;;;0.25;0.20;;;19.40;44.90;21.50;93024.00;;;;10471615;28;45218;-61
2022/09/30 05:02:29;;;;;;;0.10;0.10;;;19.40;44.80;21.50;93015.00;;;;10470044;28;45208;-62
2022/09/30 05:07:50;;;;;;;0.30;0.20;;;19.40;44.70;21.50;93020.00;;;;10469957;28;45223;-61
2022/09/30 05:13:11;;;;;;;0.20;0.20;;;19.40;44.70;21.60;93038.00;;;;10449613;28;45714;-61
2022/09/30 05:18:33;;;;;;;0.30;0.30;;;19.40;44.50;21.60;93033.00;;;;10433817;28;45765;-62
2022/09/30 05:23:55;;;;;;;0.40;0.30;;;19.50;44.50;21.60;93056.00;;;;10455573;28;45730;-62
2022/09/30 05:29:16;;;;;;;0.20;0.20;;;19.50;44.50;21.60;93056.00;;;;10465909;28;45744;-62
2022/09/30 05:34:38;;;;;;;0.30;0.20;;;19.50;44.40;21.60;93054.00;;;;10453916;28;45075;-61
2022/09/30 05:40:00;;;;;;;0.20;0.20;;;19.50;44.50;21.70;93072.00;;;;10461506;28;45819;-62
2022/09/30 05:45:20;;;;;;;0.20;0.20;;;19.50;44.50;21.70;93077.00;;;;10472242;28;45226;-61
2022/09/30 05:50:41;;;;;;;0.20;0.20;;;19.50;44.30;21.70;93090.00;;;;10469982;28;45812;-61
2022/09/30 05:56:04;;;;;;;1.52;0.20;;;19.60;44.30;21.70;93084.00;;;;10469625;28;46202;-60
2022/09/30 06:01:24;;;;;;;0.65;0.28;;;19.60;44.40;21.70;93095.00;;;;10440190;28;45385;-61
2022/09/30 06:06:46;;;;;;;0.25;0.20;;;19.60;44.20;21.70;93096.00;;;;10427644;28;45256;-61
2022/09/30 06:12:09;;;;;;;0.20;0.20;;;19.60;44.40;21.70;93101.00;;;;10429726;28;45079;-61
2022/09/30 06:17:30;;;;;;;0.10;0.10;;;19.60;44.20;21.80;93121.00;;;;10434150;28;45824;-61
2022/09/30 06:22:50;;;;;;;1.13;0.20;;;19.60;45.00;21.80;93112.00;;;;10435041;28;45317;-61
2022/09/30 06:28:12;;;;;;;0.15;0.10;;;19.60;44.20;21.80;93129.00;;;;10470154;28;45303;-61
2022/09/30 06:33:33;;;;;;;0.57;0.20;;;19.60;44.30;21.80;93126.00;;;;10477039;28;45806;-61
2022/09/30 06:38:54;;;;;;;0.20;0.20;;;19.70;44.40;21.80;93136.00;;;;10439011;28;45280;-61
2022/09/30 06:44:16;;;;;;;0.32;0.32;;;19.70;44.30;21.80;93140.00;;;;10470456;28;45848;-61
2022/09/30 06:49:36;;;;;;;0.85;0.30;;;19.70;44.30;21.80;93153.00;;;;10466583;28;45189;-61
2022/09/30 06:54:57;;;;;;;1.75;0.20;;;19.70;44.30;21.80;93153.00;;;;10468341;28;45768;-61
2022/09/30 07:00:20;;;;;;;0.88;0.55;;;19.70;44.30;21.80;93143.00;;;;10443385;28;45138;-61
2022/09/30 07:05:41;;;;;;;0.40;0.20;;;19.60;44.30;21.80;93160.00;;;;10433896;28;45258;-61
2022/09/30 07:11:04;;;;;;;1.20;0.30;;;19.70;44.30;21.80;93154.00;;;;10459603;28;45915;-61
2022/09/30 07:16:25;;;;;;;0.17;0.17;;;19.70;44.50;21.80;93166.00;;;;10453155;28;45918;-62
2022/09/30 07:21:46;;;;;;;1.35;0.30;;;19.70;44.50;21.80;93168.00;;;;10439332;28;45362;-62
2022/09/30 07:27:06;;;;;;;0.82;0.30;;;19.70;44.90;21.90;93173.00;;;;10459630;28;45245;-61
2022/09/30 07:32:28;;;;;;;0.43;0.38;;;19.70;45.50;21.90;93174.00;;;;10474535;28;45527;-61
2022/09/30 07:37:49;;;;;;;0.55;0.20;;;19.80;45.50;22.00;93179.00;;;;10438417;28;45224;-61
2022/09/30 07:43:09;;;;;;;0.68;0.22;;;19.80;45.60;22.00;93176.00;;;;10473412;28;45126;-61
2022/09/30 07:48:42;;;;;;;0.25;0.20;;;19.80;45.60;22.00;93183.00;;;;10460105;28;45868;-61
2022/09/30 07:54:06;;;;;;;0.40;0.22;;;19.90;45.70;22.00;93184.00;;;;10467696;28;45321;-61
2022/09/30 07:59:27;;;;;;;0.52;0.20;;;19.90;46.50;22.10;93194.00;;;;10461160;28;45103;-61
2022/09/30 08:04:49;;;;;;;0.32;0.20;;;19.90;46.60;22.10;93200.00;;;;10461564;28;45616;-61
2022/09/30 08:10:10;;;;;;;0.43;0.20;;;19.90;46.00;22.10;93202.00;;;;10452212;28;45204;-61
2022/09/30 08:15:31;;;;;;;0.95;0.25;;;20.00;46.10;22.10;93207.00;;;;10430832;28;45777;-60
2022/09/30 08:20:53;;;;;;;1.38;0.20;;;20.00;46.20;22.10;93215.00;;;;10456887;28;45869;-60
2022/09/30 08:26:15;;;;;;;0.70;0.20;;;20.00;46.30;22.10;93232.00;;;;10472237;28;45372;-61
2022/09/30 08:31:36;;;;;;;0.28;0.17;;;20.00;46.50;22.10;93248.00;;;;10472634;28;45190;-61
2022/09/30 08:36:58;;;;;;;0.63;0.28;;;20.00;46.50;22.10;93255.00;;;;10472063;28;45231;-61
2022/09/30 08:42:42;;;;;;;0.65;0.25;;;20.00;46.60;22.10;93248.00;;;;10471707;28;45779;-61
2022/09/30 08:48:23;;;;;;;0.50;0.28;;;20.00;46.60;22.20;93276.00;;;;10456311;28;46038;-60
2022/09/30 08:53:47;;;;;;;0.75;0.20;;;20.00;46.80;22.20;93280.00;;;;10452625;28;45238;-60
2022/09/30 08:59:20;;;;;;;0.25;0.20;;;20.00;46.90;22.20;93266.00;;;;10461083;28;45703;-61
2022/09/30 09:04:41;;;;;;;0.60;0.28;;;20.00;46.90;22.20;93291.00;;;;10463458;28;45274;-60
2022/09/30 09:10:19;;;;;;;0.20;0.20;;;20.00;47.00;22.20;93294.00;;;;10473168;28;45141;-60
2022/09/30 09:15:57;;;;;;;0.82;0.40;;;20.00;47.10;22.20;93296.00;;;;10471223;28;45277;-61
2022/09/30 09:21:26;;;;;;;0.50;0.20;;;20.10;47.20;22.20;93305.00;;;;10473637;28;45171;-61
2022/09/30 09:26:50;;;;;;;0.75;0.30;;;20.00;47.20;22.20;93300.00;;;;10475826;28;45389;-61
2022/09/30 09:32:16;;;;;;;1.40;0.20;;;20.00;47.30;22.20;93302.00;;;;10447880;28;45587;-60
2022/09/30 09:43:43;;;;;;;0.22;0.20;;;20.10;47.40;22.20;93287.00;;;;10462485;28;45769;-60
2022/09/30 09:49:27;;;;;;;;;;;20.00;47.40;22.20;93304.00;;;;10456145;28;45237;-60
2022/09/30 09:54:51;;;;;;;0.10;0.10;;;20.10;47.50;22.20;93303.00;;;;10461921;28;45895;-60
2022/09/30 10:06:07;;;;;;;0.60;0.20;;;20.10;47.50;22.20;93316.00;;;;10455440;28;45187;-60
2022/09/30 10:11:29;;;;;;;0.25;0.20;;;20.00;47.60;22.20;93312.00;;;;10458485;28;45174;-60
2022/09/30 10:16:58;;;;;;;0.63;0.30;;;20.10;47.60;22.20;93310.00;;;;10462203;28;45610;-60
2022/09/30 10:22:23;;;;;;;0.75;0.30;;;20.10;47.70;22.30;93321.00;;;;10459344;28;45197;-60
2022/09/30 10:27:53;;;;;;;0.20;0.13;;;20.10;47.70;22.30;93321.00;;;;10458397;28;45762;-60
2022/09/30 10:33:24;;;;;;;1.63;0.30;;;20.10;47.70;22.30;93311.00;;;;10468554;28;45760;-60
2022/09/30 10:39:07;;;;;;;0.25;0.20;;;20.10;47.80;22.30;93309.00;;;;10443081;28;45785;-60
2022/09/30 10:44:29;;;;;;;0.55;0.30;;;20.10;47.90;22.30;93336.00;;;;10459779;28;45259;-60
2022/09/30 10:49:55;;;;;;;0.82;0.50;;;20.10;47.90;22.30;93346.00;;;;10444366;28;45231;-60
2022/09/30 10:55:31;;;;;;;0.63;0.30;;;20.10;47.90;22.30;93343.00;;;;10460243;28;45247;-60
2022/09/30 11:01:00;;;;;;;0.60;0.40;;;20.10;47.90;22.30;93350.00;;;;10472883;28;45176;-60
2022/09/30 11:06:24;;;;;;;0.65;0.40;;;20.10;48.00;22.30;93360.00;;;;10466932;28;45240;-60
2022/09/30 11:11:53;;;;;;;1.10;0.38;;;20.10;48.00;22.30;93358.00;;;;10462523;28;45656;-60
2022/09/30 11:17:30;;;;;;;1.20;0.50;;;20.10;48.00;22.30;93350.00;;;;10458221;28;45138;-60
2022/09/30 11:22:59;;;;;;;1.48;0.50;;;20.10;48.00;22.30;93358.00;;;;10457913;28;45201;-60
2022/09/30 11:28:50;;;;;;;1.10;0.30;;;20.10;48.00;22.30;93358.00;;;;10458359;28;45267;-60
2022/09/30 11:34:32;;;;;;;0.57;0.40;;;20.10;48.20;22.30;93345.00;;;;10464541;28;46039;-60
2022/09/30 11:40:26;;;;;;;0.60;0.32;;;20.10;48.10;22.30;93363.00;;;;10473437;28;45169;-60
2022/09/30 11:46:18;;;;;;;1.20;0.47;;;20.10;48.10;22.30;93364.00;;;;10473022;28;45198;-60
2022/09/30 11:51:51;;;;;;;0.70;0.40;;;20.10;48.20;22.30;93353.00;;;;10461734;28;45146;-60
2022/09/30 11:57:19;;;;;;;0.50;0.28;;;20.10;48.10;22.30;93373.00;;;;10472653;28;45465;-60
2022/09/30 12:02:44;;;;;;;0.70;0.40;;;20.10;48.20;22.30;93366.00;;;;10467294;28;45213;-60
2022/09/30 12:08:15;;;;;;;0.65;0.47;;;20.10;48.20;22.30;93364.00;;;;10473353;28;45261;-60
2022/09/30 12:13:43;;;;;;;0.88;0.35;;;20.10;48.20;22.30;93359.00;;;;10473932;28;45753;-60
2022/09/30 12:19:15;;;;;;;0.50;0.30;;;20.10;48.20;22.30;93369.00;;;;10449416;28;45209;-59
2022/09/30 12:24:38;;;;;;;0.75;0.40;;;20.20;48.30;22.30;93372.00;;;;10455127;28;45116;-59
2022/09/30 12:30:17;;;;;;;2.38;0.30;;;20.20;48.30;22.30;93371.00;;;;10473446;28;45713;-59
2022/09/30 12:36:09;;;;;;;1.77;0.30;;;20.10;48.20;22.30;93370.00;;;;10460898;28;45145;-59
2022/09/30 12:41:54;;;;;;;0.40;0.38;;;20.10;48.30;22.30;93380.00;;;;10472474;28;45148;-59
2022/09/30 12:47:31;;;;;;;1.23;0.50;;;20.10;48.20;22.30;93388.00;;;;10472227;28;45866;-59
2022/09/30 12:52:51;;;;;;;0.40;0.35;;;20.10;48.30;22.30;93369.00;;;;10472905;28;45263;-59
2022/09/30 12:58:22;;;;;;;1.95;0.40;;;20.20;48.30;22.30;93371.00;;;;10457800;28;45932;-59
2022/09/30 13:03:51;;;;;;;0.70;0.50;;;20.10;48.30;22.30;93380.00;;;;10449314;28;45719;-59
2022/09/30 13:09:21;;;;;;;0.70;0.40;;;20.20;48.30;22.30;93379.00;;;;10429411;28;45304;-59
2022/09/30 13:14:43;;;;;;;0.80;0.30;;;20.10;48.30;22.30;93378.00;;;;10461184;28;45186;-58
2022/09/30 13:20:49;;;;;;;1.05;0.50;;;20.10;48.30;22.30;93386.00;;;;10471560;28;45666;-59
2022/09/30 13:26:43;;;;;;;2.17;0.40;;;20.10;48.30;22.30;93389.00;;;;10477099;28;45114;-59
2022/09/30 13:32:09;;;;;;;1.08;0.50;;;20.10;48.30;22.30;93392.00;;;;10471206;28;45791;-59
2022/09/30 13:38:15;;;;;;;1.05;0.40;;;20.20;48.30;22.30;93401.00;;;;10469862;28;45147;-59
2022/09/30 13:43:43;;;;;;;0.88;0.40;;;20.20;48.30;22.30;93392.00;;;;10457399;28;47344;-59
2022/09/30 13:49:05;;;;;;;;;;;20.20;48.20;22.40;93411.00;;;;10469802;28;45840;-59
2022/09/30 13:54:33;;;;;;;1.20;0.60;;;20.20;48.20;22.30;93400.00;;;;10431332;28;45304;-60
2022/09/30 14:00:06;;;;;;;1.23;0.57;;;20.20;48.10;22.30;93394.00;;;;10454679;28;45853;-59
2022/09/30 14:05:41;;;;;;;1.17;0.45;;;20.20;48.20;22.30;93397.00;;;;10427502;28;45706;-60
2022/09/30 14:11:18;;;;;;;1.02;0.50;;;20.20;48.10;22.30;93392.00;;;;10469466;28;45777;-60
2022/09/30 14:17:07;;;;;;;1.00;0.57;;;20.20;48.10;22.30;93396.00;;;;10469555;28;45123;-60
2022/09/30 14:22:29;;;;;;;1.67;0.60;;;20.20;48.10;22.40;93395.00;;;;10469814;28;45193;-60
2022/09/30 14:28:03;;;;;;;1.73;0.50;;;20.10;48.00;22.30;93408.00;;;;10468355;28;45741;-59
2022/09/30 14:33:27;;;;;;;1.95;0.47;;;20.20;48.10;22.40;93394.00;;;;10470905;28;45236;-60
2022/09/30 14:38:52;;;;;;;0.85;0.50;;;20.20;48.00;22.40;93423.00;;;;10471781;28;45792;-60
2022/09/30 14:44:18;;;;;;;1.27;0.55;;;20.20;48.00;22.30;93399.00;;;;10459005;28;45215;-60
2022/09/30 14:49:40;;;;;;;1.38;0.47;;;20.20;48.00;22.40;93419.00;;;;10479045;28;45172;-60
2022/09/30 14:55:01;;;;;;;1.10;0.30;;;20.20;48.00;22.40;93417.00;;;;10475235;28;45380;-60
2022/09/30 15:00:30;;;;;;;0.77;0.50;;;20.10;47.90;22.40;93429.00;;;;10475270;28;45470;-60
2022/09/30 15:05:51;;;;;;;1.13;0.50;;;20.20;47.90;22.40;93421.00;;;;10472472;28;45797;-60
2022/09/30 15:11:18;;;;;;;0.80;0.40;;;20.20;47.90;22.30;93403.00;;;;10475214;28;45304;-60
2022/09/30 15:16:49;;;;;;;1.40;0.43;;;20.20;47.90;22.30;93402.00;;;;10474670;28;45253;-60
2022/09/30 15:22:12;;;;;;;0.60;0.30;;;20.10;47.90;22.40;93420.00;;;;10474451;28;45836;-60
2022/09/30 15:27:35;;;;;;;1.15;0.40;;;20.20;47.90;22.40;93423.00;;;;10473544;28;45793;-60
2022/09/30 15:33:04;;;;;;;0.70;0.40;;;20.20;47.80;22.40;93426.00;;;;10458311;28;45453;-60
2022/09/30 15:38:26;;;;;;;0.40;0.30;;;20.20;47.80;22.40;93439.00;;;;10470958;28;45283;-60
2022/09/30 15:43:50;;;;;;;0.40;0.25;;;20.20;47.80;22.40;93438.00;;;;10455295;28;45716;-60
2022/09/30 15:49:35;;;;;;;0.90;0.50;;;20.20;47.80;22.40;93430.00;;;;10463337;28;45412;-61
2022/09/30 15:54:57;;;;;;;0.50;0.30;;;20.20;47.70;22.40;93440.00;;;;10455210;28;45256;-60
2022/09/30 16:00:38;;;;;;;0.75;0.30;;;20.20;47.70;22.40;93452.00;;;;10471325;28;45912;-60
2022/09/30 16:06:09;;;;;;;0.68;0.28;;;20.20;47.70;22.40;93447.00;;;;10469640;28;45198;-60
2022/09/30 16:11:35;;;;;;;1.90;0.40;;;20.20;47.70;22.40;93463.00;;;;10472549;28;45195;-60
2022/09/30 16:16:59;;;;;;;0.35;0.22;;;20.20;47.60;22.40;93454.00;;;;10472406;28;45165;-60
2022/09/30 16:22:51;;;;;;;1.35;0.45;;;20.20;47.60;22.40;93458.00;;;;10472633;28;45255;-61
2022/09/30 16:28:13;;;;;;;1.42;0.30;;;20.30;47.70;22.40;93456.00;;;;10471238;28;45593;-60
2022/09/30 16:33:38;;;;;;;1.30;0.65;;;20.30;47.60;22.40;93463.00;;;;10472315;28;46158;-61
2022/09/30 16:39:00;;;;;;;1.00;0.43;;;20.20;47.50;22.40;93458.00;;;;10470557;28;45191;-60
2022/09/30 16:44:21;;;;;;;0.80;0.30;;;20.30;47.60;22.40;93472.00;;;;10471367;28;45291;-60
2022/09/30 16:49:45;;;;;;;0.45;0.20;;;20.30;47.60;22.40;93476.00;;;;10470816;28;45308;-61
2022/09/30 16:55:07;;;;;;;0.55;0.30;;;20.20;47.50;22.40;93487.00;;;;10460652;28;45750;-60
2022/09/30 17:00:29;;;;;;;2.20;0.50;;;20.30;47.50;22.40;93495.00;;;;10470606;28;45515;-60
2022/09/30 17:05:51;;;;;;;0.80;0.40;;;20.30;47.50;22.40;93491.00;;;;10441830;28;45358;-60
2022/09/30 17:11:13;;;;;;;0.82;0.50;;;20.30;47.40;22.50;93506.00;;;;10442996;28;45791;-60
2022/09/30 17:16:34;;;;;;;0.50;0.40;;;20.30;47.40;22.50;93518.00;;;;10429241;28;45224;-61
2022/09/30 17:21:55;;;;;;;1.90;0.60;;;20.30;47.30;22.50;93517.00;;;;10452831;28;45522;-60
2022/09/30 17:27:17;;;;;;;1.38;0.40;;;20.30;47.30;22.50;93519.00;;;;10470141;28;45226;-61
2022/09/30 17:32:37;;;;;;;1.00;0.60;;;20.30;47.30;22.50;93521.00;;;;10460548;28;45182;-61
2022/09/30 17:37:59;;;;;;;0.80;0.50;;;20.30;47.30;22.50;93525.00;;;;10468571;28;45373;-60
2022/09/30 17:43:20;;;;;;;1.00;0.57;;;20.30;47.30;22.50;93524.00;;;;10469644;28;45170;-60
2022/09/30 17:48:42;;;;;;;1.00;0.63;;;20.30;47.20;22.50;93518.00;;;;10459702;28;45153;-60
2022/09/30 17:54:03;;;;;;;1.10;0.65;;;20.30;47.20;22.50;93539.00;;;;10469717;28;45491;-60
2022/09/30 17:59:27;;;;;;;0.65;0.40;;;20.30;47.20;22.50;93523.00;;;;10469016;28;45951;-60
2022/09/30 18:04:48;;;;;;;0.95;0.60;;;20.30;47.20;22.50;93544.00;;;;10463278;28;45490;-60
2022/09/30 18:10:09;;;;;;;1.13;0.60;;;20.30;47.10;22.50;93543.00;;;;10473700;28;45294;-60
2022/09/30 18:15:31;;;;;;;1.60;0.80;;;20.30;47.10;22.50;93560.00;;;;10476028;28;44973;-60
2022/09/30 18:20:51;;;;;;;1.02;0.60;;;20.30;47.10;22.50;93551.00;;;;10476927;28;45787;-60
2022/09/30 18:26:12;;;;;;;0.82;0.70;;;20.30;47.00;22.50;93543.00;;;;10476057;28;45770;-60
2022/09/30 18:31:35;;;;;;;1.42;0.60;;;20.30;47.10;22.50;93561.00;;;;10475705;28;45889;-60
2022/09/30 18:36:57;;;;;;;0.85;0.55;;;20.30;47.00;22.50;93561.00;;;;10475346;28;45221;-60
2022/09/30 18:42:18;;;;;;;2.03;0.82;;;20.30;47.00;22.50;93551.00;;;;10475679;28;45241;-60
2022/09/30 18:47:42;;;;;;;0.95;0.60;;;20.30;47.00;22.50;93570.00;;;;10474625;28;45925;-60
2022/09/30 18:53:07;;;;;;;0.85;0.60;;;20.30;47.00;22.50;93563.00;;;;10475387;28;45782;-60
2022/09/30 18:58:29;;;;;;;0.88;0.75;;;20.30;47.00;22.50;93568.00;;;;10474849;28;45847;-60
2022/09/30 19:03:51;;;;;;;1.00;0.63;;;20.30;47.00;22.50;93584.00;;;;10475124;28;45690;-60
2022/09/30 19:09:11;;;;;;;1.02;0.80;;;20.30;46.90;22.50;93593.00;;;;10474188;28;45828;-60
2022/09/30 19:14:33;;;;;;;1.42;0.77;;;20.40;47.00;22.50;93591.00;;;;10432838;28;45163;-60
2022/09/30 19:19:55;;;;;;;0.55;0.55;;;20.30;46.80;22.50;93594.00;;;;10431396;28;45880;-60
2022/09/30 19:25:15;;;;;;;1.00;0.80;;;20.30;46.80;22.50;93577.00;;;;10443777;28;45266;-60
2022/09/30 19:30:40;;;;;;;1.23;0.80;;;20.40;46.80;22.50;93585.00;;;;10473537;28;45766;-60
2022/09/30 19:36:04;;;;;;;1.33;0.80;;;20.40;46.80;22.50;93579.00;;;;10466659;28;45425;-60
2022/09/30 19:41:26;;;;;;;2.22;0.90;;;20.30;46.70;22.50;93579.00;;;;10472924;28;45678;-60
2022/09/30 19:46:49;;;;;;;1.50;0.90;;;20.40;46.70;22.50;93569.00;;;;10473200;28;45213;-60
2022/09/30 19:52:11;;;;;;;0.93;0.70;;;20.40;46.70;22.60;93574.00;;;;10473280;28;45698;-60
2022/09/30 19:57:33;;;;;;;1.00;0.70;;;20.40;46.70;22.60;93578.00;;;;10436311;28;45158;-60
2022/09/30 20:02:56;;;;;;;1.35;0.70;;;20.40;46.70;22.60;93571.00;;;;10431582;28;45384;-60
2022/09/30 20:08:18;;;;;;;1.70;0.80;;;20.40;46.60;22.60;93565.00;;;;10452699;28;45560;-60
2022/09/30 20:13:40;;;;;;;1.92;1.00;;;20.40;46.60;22.60;93575.00;;;;10430746;28;45204;-60
2022/09/30 20:19:00;;;;;;;0.80;0.65;;;20.40;46.60;22.60;93564.00;;;;10430928;28;45202;-60
2022/09/30 20:24:23;;;;;;;1.10;0.68;;;20.40;46.50;22.60;93565.00;;;;10461485;28;46014;-60
2022/09/30 20:29:44;;;;;;;1.17;0.63;;;20.40;46.50;22.50;93583.00;;;;10471389;28;45122;-59
2022/09/30 20:35:06;;;;;;;0.55;0.52;;;20.40;46.60;22.50;93572.00;;;;10471870;28;45723;-59
2022/09/30 20:40:28;;;;;;;1.33;0.90;;;20.40;46.60;22.50;93581.00;;;;10470703;28;45165;-60
2022/09/30 20:45:54;;;;;;;1.38;0.82;;;20.30;46.60;22.50;93584.00;;;;10471650;28;45136;-60
2022/09/30 20:51:17;;;;;;;0.80;0.80;;;20.20;46.60;22.40;93588.00;;;;10469582;28;45317;-60
2022/09/30 20:56:39;;;;;;;0.98;0.73;;;20.20;46.60;22.40;93572.00;;;;10466976;28;45795;-60
2022/09/30 21:01:59;;;;;;;1.13;0.60;;;20.10;46.70;22.40;93593.00;;;;10471404;28;45232;-60
2022/09/30 21:07:20;;;;;;;0.57;0.50;;;20.10;46.70;22.30;93583.00;;;;10471872;28;45201;-60
2022/09/30 21:12:43;;;;;;;1.13;0.80;;;20.10;46.70;22.30;93603.00;;;;10446022;28;45253;-61
2022/09/30 21:18:03;;;;;;;1.10;0.75;;;20.00;46.70;22.30;93614.00;;;;10472063;28;45392;-60
2022/09/30 21:23:24;;;;;;;0.95;0.77;;;20.00;46.80;22.20;93632.00;;;;10435226;28;45410;-60
2022/09/30 21:28:47;;;;;;;0.70;0.57;;;19.90;46.80;22.20;93657.00;;;;10470658;28;45683;-61
2022/09/30 21:34:12;;;;;;;0.77;0.52;;;19.90;46.80;22.20;93659.00;;;;10460512;28;45691;-60
2022/09/30 21:39:32;;;;;;;0.70;0.50;;;19.90;46.80;22.20;93663.00;;;;10444887;28;45322;-61
2022/09/30 21:44:54;;;;;;;0.93;0.65;;;19.90;46.80;22.20;93670.00;;;;10459489;28;45301;-60
2022/09/30 21:50:15;;;;;;;0.65;0.50;;;19.90;46.80;22.10;93673.00;;;;10463292;28;45151;-61
2022/09/30 21:55:36;;;;;;;1.25;0.70;;;19.90;46.80;22.10;93678.00;;;;10461012;28;45211;-61
2022/09/30 22:01:01;;;;;;;0.80;0.60;;;19.80;46.70;22.10;93671.00;;;;10449913;28;45271;-61
2022/09/30 22:06:21;;;;;;;1.25;0.70;;;19.90;46.80;22.10;93672.00;;;;10461473;28;45178;-61
2022/09/30 22:11:42;;;;;;;1.05;0.60;;;19.80;46.80;22.10;93687.00;;;;10473449;28;45157;-62
2022/09/30 22:17:07;;;;;;;1.20;0.57;;;19.80;46.80;22.10;93686.00;;;;10460388;28;45130;-61
2022/09/30 22:22:27;;;;;;;0.85;0.55;;;19.80;46.70;22.00;93684.00;;;;10447269;28;45245;-60
2022/09/30 22:27:48;;;;;;;1.25;0.73;;;19.80;46.70;22.00;93684.00;;;;10460275;28;45812;-61
2022/09/30 22:38:49;;;;;;;1.52;0.77;;;19.70;46.70;22.00;93681.00;;;;10446009;28;45655;-61
2022/09/30 22:44:10;;;;;;;1.23;0.50;;;19.70;46.70;22.00;93672.00;;;;10472328;28;45321;-61
2022/09/30 22:49:32;;;;;;;0.50;0.50;;;19.70;46.60;22.00;93689.00;;;;10462962;28;45865;-61
2022/09/30 22:54:53;;;;;;;0.45;0.40;;;19.70;46.60;21.90;93690.00;;;;10433957;28;45643;-61
2022/09/30 23:00:14;;;;;;;0.80;0.40;;;19.70;46.60;21.90;93674.00;;;;10443634;28;45432;-60
2022/09/30 23:05:36;;;;;;;1.30;0.68;;;19.70;46.70;21.90;93671.00;;;;10456946;28;45530;-61
2022/09/30 23:10:59;;;;;;;0.65;0.50;;;19.60;46.60;21.90;93692.00;;;;10476669;28;45389;-61
2022/09/30 23:16:19;;;;;;;1.02;0.43;;;19.60;46.60;21.90;93689.00;;;;10447900;28;45790;-61
2022/09/30 23:21:41;;;;;;;0.47;0.47;;;19.60;46.90;21.90;93693.00;;;;10439565;28;45242;-61
2022/09/30 23:27:02;;;;;;;0.63;0.50;;;19.60;46.60;21.90;93703.00;;;;10458879;28;45229;-61
2022/09/30 23:32:22;;;;;;;0.68;0.50;;;19.60;46.60;21.90;93706.00;;;;10458685;28;45138;-61
2022/09/30 23:37:45;;;;;;;0.47;0.40;;;19.60;46.60;21.80;93712.00;;;;10472620;28;45699;-60
2022/09/30 23:43:06;;;;;;;0.40;0.40;;;19.50;46.60;21.80;93704.00;;;;10474354;28;46051;-60
2022/09/30 23:48:27;;;;;;;1.20;0.50;;;19.50;46.60;21.80;93711.00;;;;10473311;28;45206;-61
2022/09/30 23:53:50;;;;;;;0.35;0.32;;;19.50;46.60;21.80;93713.00;;;;10473794;28;45293;-61
2022/09/30 23:59:13;;;;;;;0.60;0.43;;;19.50;46.60;21.80;93718.00;;;;10473671;28;45538;-61
